createdAt,value
2023-04-16T00:01:18.057Z,8.80
2023-04-16T00:06:21.974Z,9.07
2023-04-16T00:11:26.143Z,7.70
2023-04-16T00:16:30.201Z,13.53
2023-04-16T00:21:34.465Z,10.90
2023-04-16T00:26:38.381Z,14.23
2023-04-16T00:31:42.658Z,10.23
2023-04-16T00:36:47.630Z,13.30
2023-04-16T00:41:51.550Z,12.23
2023-04-16T00:46:57.388Z,12.10
2023-04-16T00:52:03.121Z,10.00
2023-04-16T00:57:07.547Z,13.03
2023-04-16T01:02:15.194Z,11.52
2023-04-16T01:07:19.170Z,10.37
2023-04-16T01:12:23.327Z,14.63
2023-04-16T01:17:30.069Z,12.90
2023-04-16T01:22:33.937Z,10.43
2023-04-16T01:27:38.412Z,13.77
2023-04-16T01:32:42.810Z,10.13
2023-04-16T01:37:47.082Z,9.70
2023-04-16T01:42:52.440Z,13.00
2023-04-16T01:47:57.407Z,14.43
2023-04-16T01:53:02.991Z,10.13
2023-04-16T01:58:08.754Z,6.25
2023-04-16T02:03:13.037Z,7.93
2023-04-16T02:08:57.523Z,6.72
2023-04-16T02:14:02.707Z,7.20
2023-04-16T02:19:07.570Z,9.15
2023-04-16T02:24:12.934Z,9.38
2023-04-16T02:29:18.123Z,6.43
2023-04-16T02:34:28.872Z,8.63
2023-04-16T02:39:32.886Z,6.28
2023-04-16T02:44:36.889Z,5.88
2023-04-16T02:49:41.243Z,5.97
2023-04-16T02:54:45.432Z,4.28
2023-04-16T02:59:49.297Z,4.28
2023-04-16T03:04:53.596Z,3.30
2023-04-16T03:09:57.713Z,3.75
2023-04-16T03:15:02.674Z,4.38
2023-04-16T03:20:10.939Z,2.40
2023-04-16T03:25:16.731Z,3.10
2023-04-16T03:30:20.717Z,3.88
2023-04-16T03:35:24.884Z,2.67
2023-04-16T03:40:28.800Z,3.50
2023-04-16T03:45:33.481Z,2.72
2023-04-16T03:50:37.586Z,4.07
2023-04-16T03:55:44.425Z,3.00
2023-04-16T04:00:48.576Z,4.00
2023-04-16T04:05:54.288Z,2.58
2023-04-16T04:11:03.630Z,3.22
2023-04-16T04:16:09.284Z,3.95
2023-04-16T04:21:14.423Z,2.33
2023-04-16T04:26:18.539Z,2.80
2023-04-16T04:31:22.734Z,4.63
2023-04-16T04:36:28.163Z,2.40
2023-04-16T04:41:32.507Z,1.77
2023-04-16T04:46:37.693Z,1.23
2023-04-16T04:51:43.452Z,1.00
2023-04-16T04:56:48.057Z,2.03
2023-04-16T05:01:52.518Z,2.15
2023-04-16T05:06:57.857Z,1.20
2023-04-16T05:12:01.794Z,1.42
2023-04-16T05:17:06.125Z,1.27
2023-04-16T05:22:10.290Z,1.77
2023-04-16T05:27:14.297Z,2.08
2023-04-16T05:32:18.276Z,1.77
2023-04-16T05:37:22.136Z,1.83
2023-04-16T05:42:26.277Z,1.38
2023-04-16T05:47:30.145Z,2.60
2023-04-16T05:52:34.151Z,1.70
2023-04-16T05:57:38.284Z,2.22
2023-04-16T06:02:42.536Z,1.85
2023-04-16T06:07:47.026Z,1.30
2023-04-16T06:12:50.992Z,1.33
2023-04-16T06:17:55.722Z,1.25
2023-04-16T06:22:59.891Z,1.63
2023-04-16T06:28:03.951Z,2.08
2023-04-16T06:33:08.090Z,1.88
2023-04-16T06:38:11.971Z,1.67
2023-04-16T06:43:16.840Z,2.10
2023-04-16T06:48:21.957Z,2.08
2023-04-16T06:53:26.432Z,1.13
2023-04-16T06:58:30.303Z,1.27
2023-04-16T07:03:34.475Z,1.80
2023-04-16T07:08:38.815Z,2.38
2023-04-16T07:13:42.852Z,1.80
2023-04-16T07:18:47.335Z,1.92
2023-04-16T07:23:51.346Z,2.08
2023-04-16T07:28:55.383Z,1.85
2023-04-16T07:33:59.601Z,2.08
2023-04-16T07:39:04.651Z,1.30
2023-04-16T07:44:09.162Z,0.90
2023-04-16T07:49:13.061Z,1.15
2023-04-16T07:54:17.143Z,1.02
2023-04-16T07:59:23.646Z,1.30
2023-04-16T08:04:28.581Z,3.17
2023-04-16T08:09:55.731Z,1.92
2023-04-16T08:14:59.704Z,2.50
2023-04-16T08:20:05.158Z,0.98
2023-04-16T08:25:10.978Z,2.35
2023-04-16T08:30:16.136Z,1.05
2023-04-16T08:35:20.108Z,2.88
2023-04-16T08:40:27.276Z,1.58
2023-04-16T08:45:32.739Z,1.90
2023-04-16T08:50:37.310Z,2.53
2023-04-16T08:55:49.520Z,1.10
2023-04-16T09:00:54.360Z,1.13
2023-04-16T09:06:01.032Z,1.17
2023-04-16T09:11:07.900Z,2.08
2023-04-16T09:16:13.777Z,1.63
2023-04-16T09:21:18.084Z,1.25
2023-04-16T09:26:23.329Z,1.05
2023-04-16T09:31:28.144Z,1.70
2023-04-16T09:36:33.559Z,2.13
2023-04-16T09:41:40.749Z,1.60
2023-04-16T09:46:44.760Z,1.77
2023-04-16T09:51:56.904Z,1.20
2023-04-16T09:57:02.361Z,2.38
2023-04-16T10:02:15.804Z,1.15
2023-04-16T10:07:21.390Z,1.98
2023-04-16T10:12:25.485Z,2.50
2023-04-16T10:17:30.965Z,0.95
2023-04-16T10:22:35.493Z,2.05
2023-04-16T10:27:41.073Z,1.63
2023-04-16T10:32:46.615Z,4.75
2023-04-16T10:37:52.265Z,9.35
2023-04-16T10:43:02.495Z,2.63
2023-04-16T10:48:10.812Z,4.78
2023-04-16T10:53:44.384Z,9.43
2023-04-16T10:58:48.455Z,3.22
2023-04-16T11:03:53.508Z,9.00
2023-04-16T11:08:57.823Z,2.00
2023-04-16T11:14:03.014Z,3.45
2023-04-16T11:19:07.040Z,3.20
2023-04-16T11:24:13.487Z,2.22
2023-04-16T11:29:17.874Z,2.38
2023-04-16T11:34:22.230Z,2.78
2023-04-16T11:39:26.445Z,2.33
2023-04-16T11:44:30.953Z,2.70
2023-04-16T11:49:34.974Z,2.30
2023-04-16T11:54:39.447Z,4.15
2023-04-16T12:00:02.430Z,1.95
2023-04-16T12:05:32.582Z,3.15
2023-04-16T12:10:56.754Z,3.15
2023-04-16T12:16:02.559Z,3.83
2023-04-16T12:21:08.736Z,2.70
2023-04-16T12:26:13.027Z,2.65
2023-04-16T12:31:17.492Z,4.25
2023-04-16T12:36:21.660Z,3.55
2023-04-16T12:41:25.848Z,2.58
2023-04-16T12:46:29.807Z,3.50
2023-04-16T12:51:35.140Z,3.28
2023-04-16T12:56:39.295Z,3.17
2023-04-16T13:01:43.287Z,2.50
2023-04-16T13:06:47.578Z,2.58
2023-04-16T13:11:51.609Z,3.10
2023-04-16T13:16:55.680Z,4.78
2023-04-16T13:22:00.300Z,2.00
2023-04-16T13:27:05.839Z,2.28
2023-04-16T13:32:10.510Z,2.00
2023-04-16T13:37:15.379Z,2.72
2023-04-16T13:42:20.392Z,1.92
2023-04-16T13:47:24.349Z,1.60
2023-04-16T13:52:28.430Z,1.80
2023-04-16T13:57:32.746Z,3.38
2023-04-16T14:02:37.084Z,1.90
2023-04-16T14:07:41.058Z,3.10
2023-04-16T14:12:46.037Z,2.78
2023-04-16T14:17:49.942Z,3.80
2023-04-16T14:22:54.048Z,2.58
2023-04-16T14:27:59.858Z,2.47
2023-04-16T14:33:07.829Z,2.40
2023-04-16T14:38:12.584Z,2.97
2023-04-16T14:43:16.734Z,3.78
2023-04-16T14:48:20.812Z,2.20
2023-04-16T14:53:25.770Z,3.05
2023-04-16T14:58:29.873Z,2.33
2023-04-16T15:03:34.310Z,3.50
2023-04-16T15:08:38.663Z,2.95
2023-04-16T15:13:42.791Z,3.08
2023-04-16T15:18:47.928Z,4.75
2023-04-16T15:23:52.100Z,2.42
2023-04-16T15:28:56.558Z,3.35
2023-04-16T15:34:01.245Z,3.35
2023-04-16T15:39:06.983Z,2.75
2023-04-16T15:44:11.722Z,5.22
2023-04-16T15:49:16.164Z,3.47
2023-04-16T15:54:20.249Z,2.50
2023-04-16T15:59:24.278Z,3.83
2023-04-16T16:04:29.221Z,3.70
2023-04-16T16:09:33.211Z,3.47
2023-04-16T16:14:37.303Z,3.88
2023-04-16T16:19:41.435Z,3.85
2023-04-16T16:24:45.337Z,3.83
2023-04-16T16:29:49.430Z,4.93
2023-04-16T16:34:53.367Z,5.30
2023-04-16T16:39:57.506Z,3.47
2023-04-16T16:45:05.696Z,2.55
2023-04-16T16:50:12.194Z,4.60
2023-04-16T16:55:18.692Z,3.45
2023-04-16T17:00:24.258Z,3.80
2023-04-16T17:05:29.233Z,4.00
2023-04-16T17:10:33.399Z,2.90
2023-04-16T17:15:37.387Z,3.20
2023-04-16T17:20:41.588Z,3.38
2023-04-16T17:25:45.703Z,3.72
2023-04-16T17:30:54.221Z,5.05
2023-04-16T17:35:58.339Z,2.47
2023-04-16T17:41:02.213Z,5.80
2023-04-16T17:46:06.521Z,3.40
2023-04-16T17:51:15.199Z,4.05
2023-04-16T17:56:19.480Z,3.30
2023-04-16T18:01:26.397Z,3.78
2023-04-16T18:06:30.254Z,4.63
2023-04-16T18:11:35.290Z,2.67
2023-04-16T18:16:39.609Z,3.80
2023-04-16T18:21:44.225Z,4.05
2023-04-16T18:26:48.292Z,3.05
2023-04-16T18:31:52.318Z,2.85
2023-04-16T18:36:57.715Z,3.03
2023-04-16T18:42:02.188Z,4.10
2023-04-16T18:47:06.249Z,4.80
2023-04-16T18:52:10.141Z,3.30
2023-04-16T18:57:14.360Z,3.58
2023-04-16T19:02:18.335Z,4.30
2023-04-16T19:07:22.341Z,5.00
2023-04-16T19:12:27.299Z,2.67
2023-04-16T19:17:31.308Z,3.45
2023-04-16T19:22:35.558Z,3.25
2023-04-16T19:27:39.607Z,3.40
2023-04-16T19:32:43.584Z,3.03
2023-04-16T19:37:47.708Z,4.85
2023-04-16T19:42:51.598Z,3.50
2023-04-16T19:47:56.029Z,3.10
2023-04-16T19:53:00.035Z,7.95
2023-04-16T19:58:07.240Z,5.07
2023-04-16T20:03:11.398Z,4.25
2023-04-16T20:08:15.396Z,4.07
2023-04-16T20:13:19.480Z,4.63
2023-04-16T20:18:23.322Z,5.35
2023-04-16T20:23:27.754Z,5.13
2023-04-16T20:28:31.669Z,4.00
2023-04-16T20:33:35.810Z,4.00
2023-04-16T20:38:39.891Z,2.60
2023-04-16T20:43:44.590Z,3.65
2023-04-16T20:48:48.600Z,3.40
2023-04-16T20:53:52.707Z,3.63
2023-04-16T20:58:56.750Z,3.20
2023-04-16T21:04:00.809Z,3.80
2023-04-16T21:09:08.561Z,5.03
2023-04-16T21:14:12.701Z,4.28
2023-04-16T21:19:16.783Z,3.95
2023-04-16T21:24:20.907Z,4.13
2023-04-16T21:29:24.993Z,3.40
2023-04-16T21:34:29.284Z,5.75
2023-04-16T21:39:33.214Z,6.45
2023-04-16T21:44:37.130Z,4.70
2023-04-16T21:49:42.986Z,4.93
2023-04-16T21:54:48.552Z,2.95
2023-04-16T21:59:52.422Z,3.83
2023-04-16T22:04:56.433Z,3.58
2023-04-16T22:10:00.701Z,3.83
2023-04-16T22:15:09.854Z,4.00
2023-04-16T22:25:18.034Z,4.32
2023-04-16T22:30:21.851Z,5.30
2023-04-16T22:35:25.854Z,6.25
2023-04-16T22:40:32.756Z,4.47
2023-04-16T22:45:38.447Z,4.07
2023-04-16T22:51:05.830Z,4.80
2023-04-16T22:56:10.153Z,4.00
2023-04-16T23:01:14.055Z,3.55
2023-04-16T23:06:18.257Z,3.25
2023-04-16T23:11:22.054Z,4.78
2023-04-16T23:16:27.342Z,5.38
2023-04-16T23:21:31.867Z,3.92
2023-04-16T23:26:36.055Z,4.72
2023-04-16T23:31:40.221Z,3.85
2023-04-16T23:36:44.267Z,3.28
2023-04-16T23:41:48.523Z,3.63
2023-04-16T23:46:52.464Z,4.65
2023-04-16T23:51:56.710Z,3.80
2023-04-16T23:57:00.679Z,5.80
